Fauldhouse, United Kingdom
Current Conditions -  °F | °C
As of 2:20 PM on Tuesday 27 Jan 2015 (Local Time) from EGPH Reporting Station
Rain Showers Rain Showers  
Wind Chill: 39°   Ceiling: 1900
Heat Index: 46°   Visibility: 6mi
Dew Point: 43°   Wind: 17mph
Humidity: 87%   Direction: 240°WSW
Pressure: 30.06"   Gusts: NA
Location:  55.83°N, 3.71°W
Report Text: EGPH 271420Z 24015KT 9999 7000S VCSH SCT012 BKN019 08/06 Q1018
Loading
Personal Weather Stations






























Interactive Weather Map New forecast layout! Learn more

10-Day Weather Forecast

Advertisements
Track Severe Weather on mobile